createdAt,value
2023-01-11T00:01:31.237Z,11.93
2023-01-11T00:04:32.838Z,10.93
2023-01-11T00:07:34.462Z,10.30
2023-01-11T00:10:36.685Z,10.23
2023-01-11T00:13:38.311Z,9.80
2023-01-11T00:16:39.929Z,9.77
2023-01-11T00:19:41.548Z,10.83
2023-01-11T00:22:43.217Z,9.40
2023-01-11T00:25:44.842Z,8.87
2023-01-11T00:28:48.123Z,9.57
2023-01-11T00:31:49.802Z,9.23
2023-01-11T00:34:51.399Z,9.53
2023-01-11T00:37:54.063Z,10.33
2023-01-11T00:40:55.704Z,10.10
2023-01-11T00:44:16.073Z,9.07
2023-01-11T00:47:36.401Z,8.07
2023-01-11T00:50:39.082Z,9.53
2023-01-11T00:53:40.642Z,9.97
2023-01-11T00:56:42.374Z,9.90
2023-01-11T00:59:44.138Z,9.17
2023-01-11T01:02:45.997Z,9.37
2023-01-11T01:05:47.748Z,10.57
2023-01-11T01:08:49.326Z,9.77
2023-01-11T01:11:50.976Z,9.57
2023-01-11T01:14:52.594Z,9.23
2023-01-11T01:17:57.684Z,9.07
2023-01-11T01:20:59.330Z,9.80
2023-01-11T01:24:00.921Z,9.17
2023-01-11T01:27:02.620Z,9.87
2023-01-11T01:30:05.026Z,9.20
2023-01-11T01:33:06.642Z,8.80
2023-01-11T01:36:08.815Z,8.57
2023-01-11T01:39:11.387Z,9.10
2023-01-11T01:42:17.392Z,8.43
2023-01-11T01:45:24.011Z,9.20
2023-01-11T01:48:26.804Z,8.47
2023-01-11T01:51:54.774Z,7.93
2023-01-11T01:54:58.565Z,7.63
2023-01-11T01:58:02.445Z,6.70
2023-01-11T02:01:22.850Z,6.77
2023-01-11T02:04:25.753Z,4.97
2023-01-11T02:07:31.144Z,4.90
2023-01-11T02:10:32.752Z,3.83
2023-01-11T02:13:46.179Z,4.33
2023-01-11T02:16:48.078Z,5.63
2023-01-11T02:19:52.819Z,3.83
2023-01-11T02:22:54.387Z,4.07
2023-01-11T02:26:05.025Z,4.80
2023-01-11T02:29:13.178Z,4.87
2023-01-11T02:32:33.691Z,5.17
2023-01-11T02:35:35.319Z,5.37
2023-01-11T02:38:52.334Z,5.13
2023-01-11T02:42:12.609Z,5.10
2023-01-11T02:45:17.367Z,6.07
2023-01-11T02:48:19.020Z,5.57
2023-01-11T02:51:24.141Z,5.03
2023-01-11T02:54:25.750Z,4.87
2023-01-11T02:57:29.449Z,5.27
2023-01-11T03:00:31.321Z,5.50
2023-01-11T03:03:33.849Z,4.73
2023-01-11T03:06:35.671Z,6.00
2023-01-11T03:09:56.113Z,5.47
2023-01-11T03:13:13.067Z,4.80
2023-01-11T03:16:14.713Z,5.23
2023-01-11T03:19:29.242Z,3.90
2023-01-11T03:22:30.830Z,5.70
2023-01-11T03:25:54.734Z,6.63
2023-01-11T03:29:03.538Z,5.77
2023-01-11T03:32:08.141Z,5.33
2023-01-11T03:35:09.647Z,7.07
2023-01-11T03:38:18.333Z,5.90
2023-01-11T03:41:22.580Z,6.83
2023-01-11T03:44:25.632Z,5.90
2023-01-11T03:47:28.719Z,6.00
2023-01-11T03:50:31.059Z,5.23
2023-01-11T03:53:35.656Z,5.40
2023-01-11T03:56:45.891Z,6.70
2023-01-11T03:59:48.426Z,6.33
2023-01-11T04:02:50.109Z,6.60
2023-01-11T04:05:53.677Z,6.83
2023-01-11T04:08:55.372Z,7.33
2023-01-11T04:11:56.940Z,6.83
2023-01-11T04:14:58.582Z,6.80
2023-01-11T04:18:04.965Z,8.03
2023-01-11T04:21:06.677Z,7.67
2023-01-11T04:24:08.334Z,8.80
2023-01-11T04:27:09.989Z,7.50
2023-01-11T04:30:11.788Z,11.07
2023-01-11T04:33:14.592Z,15.13
2023-01-11T04:36:16.229Z,14.83
2023-01-11T04:39:17.850Z,28.90
2023-01-11T04:42:19.469Z,19.10
2023-01-11T04:45:21.182Z,15.93
2023-01-11T04:48:22.807Z,14.00
2023-01-11T04:51:24.454Z,18.03
2023-01-11T04:54:26.094Z,13.60
2023-01-11T04:57:27.682Z,12.47
2023-01-11T05:00:29.248Z,12.07
2023-01-11T05:03:32.353Z,10.67
2023-01-11T05:06:34.044Z,14.00
2023-01-11T05:09:35.746Z,23.37
2023-01-11T05:12:37.434Z,11.10
2023-01-11T05:15:38.996Z,14.87
2023-01-11T05:18:44.864Z,15.80
2023-01-11T05:21:46.436Z,12.90
2023-01-11T05:24:48.090Z,15.23
2023-01-11T05:27:49.671Z,12.73
2023-01-11T05:30:52.610Z,13.53
2023-01-11T05:33:56.362Z,9.77
2023-01-11T05:36:57.988Z,9.10
2023-01-11T05:40:00.837Z,10.20
2023-01-11T05:43:02.438Z,13.83
2023-01-11T05:46:04.272Z,16.73
2023-01-11T05:49:06.938Z,11.30
2023-01-11T05:52:08.578Z,10.30
2023-01-11T05:55:10.248Z,20.33
2023-01-11T05:58:11.842Z,10.90
2023-01-11T06:01:13.549Z,11.07
2023-01-11T06:04:15.205Z,12.37
2023-01-11T06:07:16.791Z,16.03
2023-01-11T06:10:18.428Z,14.70
2023-01-11T06:13:26.618Z,14.57
2023-01-11T06:16:28.335Z,26.13
2023-01-11T06:19:29.906Z,19.43
2023-01-11T06:22:31.486Z,15.53
2023-01-11T06:25:37.387Z,14.37
2023-01-11T06:28:39.507Z,19.27
2023-01-11T06:31:41.085Z,12.33
2023-01-11T06:34:42.705Z,13.20
2023-01-11T06:37:44.300Z,11.90
2023-01-11T06:40:51.853Z,11.63
2023-01-11T06:43:53.480Z,9.90
2023-01-11T06:46:55.138Z,8.60
2023-01-11T06:49:56.866Z,9.93
2023-01-11T06:52:59.655Z,14.20
2023-01-11T06:56:01.243Z,11.70
2023-01-11T06:59:03.127Z,12.80
2023-01-11T07:02:05.848Z,15.07
2023-01-11T07:05:07.629Z,10.73
2023-01-11T07:08:09.435Z,12.20
2023-01-11T07:11:11.296Z,14.37
2023-01-11T07:14:15.182Z,12.67
2023-01-11T07:17:16.832Z,12.67
2023-01-11T07:20:18.521Z,12.53
2023-01-11T07:23:20.477Z,15.20
2023-01-11T07:26:22.199Z,11.93
2023-01-11T07:29:23.931Z,10.47
2023-01-11T07:32:26.671Z,11.60
2023-01-11T07:35:29.146Z,10.10
2023-01-11T07:38:30.805Z,10.07
2023-01-11T07:41:51.222Z,9.23
2023-01-11T07:44:52.832Z,11.93
2023-01-11T07:47:54.472Z,11.47
2023-01-11T07:50:56.231Z,14.70
2023-01-11T07:54:02.440Z,14.20
2023-01-11T07:57:04.073Z,11.20
2023-01-11T08:00:05.870Z,11.77
2023-01-11T08:03:13.111Z,11.23
2023-01-11T08:06:14.818Z,13.33
2023-01-11T08:09:16.460Z,13.47
2023-01-11T08:12:36.703Z,15.67
2023-01-11T08:15:39.172Z,12.10
2023-01-11T08:18:40.804Z,13.40
2023-01-11T08:21:44.547Z,15.53
2023-01-11T08:24:46.269Z,14.57
2023-01-11T08:27:47.915Z,18.87
2023-01-11T08:30:49.576Z,13.90
2023-01-11T08:33:51.236Z,17.57
2023-01-11T08:36:52.865Z,23.23
2023-01-11T08:39:56.636Z,19.57
2023-01-11T08:42:58.221Z,13.03
2023-01-11T08:46:07.365Z,18.30
2023-01-11T08:49:12.305Z,16.93
2023-01-11T08:52:14.151Z,9.73
2023-01-11T08:55:15.866Z,19.63
2023-01-11T08:58:17.561Z,17.37
2023-01-11T09:01:19.278Z,15.47
2023-01-11T09:04:25.114Z,13.07
2023-01-11T09:07:27.127Z,13.93
2023-01-11T09:10:29.880Z,15.60
2023-01-11T09:13:31.864Z,18.53
2023-01-11T09:16:33.530Z,12.00
2023-01-11T09:19:35.311Z,14.97
2023-01-11T09:22:36.887Z,16.87
2023-01-11T09:25:38.604Z,14.57
2023-01-11T09:28:40.641Z,15.00
2023-01-11T09:31:42.439Z,10.00
2023-01-11T09:34:46.809Z,9.97
2023-01-11T09:37:52.417Z,10.70
2023-01-11T09:41:23.527Z,11.20
2023-01-11T09:44:27.441Z,10.73
2023-01-11T09:47:32.161Z,11.67
2023-01-11T09:50:41.258Z,14.00
2023-01-11T09:53:49.414Z,15.70
2023-01-11T09:57:00.505Z,24.67
2023-01-11T10:00:10.551Z,22.23
2023-01-11T10:03:12.336Z,15.43
2023-01-11T10:06:18.555Z,13.67
2023-01-11T10:18:33.348Z,9.20
2023-01-11T10:20:11.324Z,18.90
2023-01-11T10:23:32.429Z,11.97
2023-01-11T10:26:39.618Z,16.53
2023-01-11T10:30:07.202Z,10.30
2023-01-11T10:33:37.895Z,17.23
2023-01-11T10:37:14.926Z,19.73
2023-01-11T10:40:42.802Z,313.70
2023-01-11T10:43:47.827Z,17.43
2023-01-11T10:46:51.985Z,17.73
2023-01-11T10:49:56.639Z,13.20
2023-01-11T10:53:06.544Z,19.73
2023-01-11T10:56:08.199Z,7.60
2023-01-11T10:59:22.207Z,8.77
2023-01-11T11:02:30.131Z,9.03
2023-01-11T11:05:58.647Z,10.00
2023-01-11T11:09:00.369Z,9.10
2023-01-11T11:12:08.137Z,16.00
2023-01-11T11:15:12.557Z,11.40
2023-01-11T11:18:14.137Z,14.53
2023-01-11T11:21:21.064Z,11.83
2023-01-11T11:24:33.183Z,7.90
2023-01-11T11:27:37.793Z,6.70
2023-01-11T11:30:42.244Z,7.23
2023-01-11T11:33:46.428Z,8.53
2023-01-11T11:36:49.366Z,11.07
2023-01-11T11:39:51.646Z,15.30
2023-01-11T11:43:08.798Z,14.70
2023-01-11T11:46:20.141Z,13.03
2023-01-11T11:49:22.073Z,11.30
2023-01-11T11:52:23.713Z,9.80
2023-01-11T11:55:28.589Z,8.83
2023-01-11T11:58:30.925Z,7.07
2023-01-11T12:01:34.271Z,5.90
2023-01-11T12:04:46.321Z,5.93
2023-01-11T12:07:55.201Z,7.63
2023-01-11T12:11:01.793Z,5.77
2023-01-11T12:14:16.652Z,7.83
2023-01-11T12:17:23.287Z,8.80
2023-01-11T12:20:28.042Z,11.30
2023-01-11T12:23:29.730Z,9.60
2023-01-11T12:26:37.324Z,7.20
2023-01-11T12:29:42.010Z,10.00
2023-01-11T12:32:50.466Z,13.63
2023-01-11T12:35:56.171Z,12.27
2023-01-11T12:39:05.055Z,9.13
2023-01-11T12:42:15.523Z,10.30
2023-01-11T12:45:20.229Z,9.23
2023-01-11T12:48:37.250Z,10.20
2023-01-11T12:51:41.780Z,9.57
2023-01-11T12:54:53.743Z,10.17
2023-01-11T12:58:01.980Z,6.97
2023-01-11T13:01:14.851Z,8.83
2023-01-11T13:04:20.666Z,10.37
2023-01-11T13:07:37.718Z,16.43
2023-01-11T13:10:44.540Z,7.93
2023-01-11T13:13:56.743Z,10.03
2023-01-11T13:17:16.868Z,9.13
2023-01-11T13:20:28.655Z,9.90
2023-01-11T13:23:33.566Z,12.83
2023-01-11T13:26:36.655Z,11.60
2023-01-11T13:29:41.039Z,45.37
2023-01-11T13:32:52.756Z,9.37
2023-01-11T13:35:56.662Z,9.87
2023-01-11T13:39:02.073Z,13.40
2023-01-11T13:42:15.808Z,11.77
2023-01-11T13:45:17.534Z,10.20
2023-01-11T13:48:25.755Z,11.23
2023-01-11T13:51:33.224Z,10.80
2023-01-11T13:54:39.272Z,14.17
2023-01-11T13:57:46.617Z,22.53
2023-01-11T14:00:54.234Z,13.67
2023-01-11T14:03:57.707Z,16.67
2023-01-11T14:07:07.743Z,18.27
2023-01-11T14:10:34.210Z,12.63
2023-01-11T14:14:14.040Z,12.07
2023-01-11T14:17:21.640Z,10.57
2023-01-11T14:20:28.847Z,11.47
2023-01-11T14:23:30.383Z,9.60
2023-01-11T14:26:38.242Z,7.33
2023-01-11T14:29:52.209Z,9.73
2023-01-11T14:33:05.961Z,10.57
2023-01-11T14:36:26.267Z,8.63
2023-01-11T14:39:33.704Z,11.60
2023-01-11T14:42:35.891Z,7.97
2023-01-11T14:45:37.650Z,8.23
2023-01-11T14:48:42.375Z,11.07
2023-01-11T14:51:43.995Z,22.37
2023-01-11T14:54:47.580Z,27.43
2023-01-11T14:57:55.547Z,24.67
2023-01-11T15:00:57.143Z,26.73
2023-01-11T15:03:58.790Z,27.30
2023-01-11T15:07:00.784Z,27.03
2023-01-11T15:10:04.590Z,33.37
2023-01-11T15:13:07.586Z,24.93
2023-01-11T15:16:29.165Z,28.70
2023-01-11T15:19:35.912Z,18.67
2023-01-11T15:22:37.768Z,28.27
2023-01-11T15:25:39.415Z,31.53
2023-01-11T15:28:47.702Z,30.40
2023-01-11T15:32:04.088Z,33.00
2023-01-11T15:35:30.688Z,38.47
2023-01-11T15:38:36.901Z,45.63
2023-01-11T15:42:05.945Z,44.93
2023-01-11T15:45:10.567Z,39.53
2023-01-11T15:48:12.206Z,39.50
2023-01-11T15:51:28.839Z,31.60
2023-01-11T15:55:03.167Z,35.87
2023-01-11T15:58:24.141Z,32.57
2023-01-11T16:01:28.372Z,41.50
2023-01-11T16:04:30.064Z,55.07
2023-01-11T16:08:04.227Z,55.23
2023-01-11T16:11:20.997Z,60.53
2023-01-11T16:14:41.206Z,59.27
2023-01-11T16:17:44.491Z,69.80
2023-01-11T16:20:55.817Z,59.43
2023-01-11T16:23:58.616Z,89.10
2023-01-11T16:27:02.054Z,81.80
2023-01-11T16:30:03.913Z,103.57
2023-01-11T16:33:22.553Z,84.70
2023-01-11T16:36:24.342Z,83.40
2023-01-11T16:39:27.642Z,78.13
2023-01-11T16:42:32.347Z,76.30
2023-01-11T16:45:41.531Z,70.00
2023-01-11T16:48:43.311Z,58.63
2023-01-11T16:51:45.616Z,62.97
2023-01-11T16:54:47.221Z,62.03
2023-01-11T16:57:51.580Z,59.40
2023-01-11T17:01:05.087Z,55.87
2023-01-11T17:04:23.746Z,65.37
2023-01-11T17:07:27.328Z,81.70
2023-01-11T17:10:29.657Z,68.67
2023-01-11T17:13:52.625Z,68.97
2023-01-11T17:16:59.677Z,79.43
2023-01-11T17:20:01.884Z,68.30
2023-01-11T17:23:03.510Z,60.30
2023-01-11T17:26:06.905Z,51.07
2023-01-11T17:29:17.087Z,67.83
2023-01-11T17:32:24.391Z,60.27
2023-01-11T17:35:30.586Z,53.87
2023-01-11T17:38:34.895Z,46.87
2023-01-11T17:41:55.018Z,54.73
2023-01-11T17:45:21.177Z,63.67
2023-01-11T17:48:23.099Z,72.93
2023-01-11T17:51:34.830Z,66.97
2023-01-11T17:54:36.587Z,62.53
2023-01-11T17:57:38.365Z,58.37
2023-01-11T18:00:40.887Z,61.23
2023-01-11T18:03:44.056Z,68.53
2023-01-11T18:06:48.288Z,59.00
2023-01-11T18:09:51.042Z,62.77
2023-01-11T18:12:53.348Z,63.77
2023-01-11T18:15:55.067Z,62.80
2023-01-11T18:18:56.980Z,52.80
2023-01-11T18:21:58.752Z,70.43
2023-01-11T18:25:02.089Z,66.33
2023-01-11T18:28:20.896Z,62.37
2023-01-11T18:31:22.711Z,64.87
2023-01-11T18:34:24.472Z,68.77
2023-01-11T18:37:26.271Z,66.63
2023-01-11T18:40:27.917Z,151.83
2023-01-11T18:43:54.642Z,96.80
2023-01-11T18:46:56.424Z,80.63
2023-01-11T18:49:58.673Z,74.97
2023-01-11T18:53:01.959Z,66.67
2023-01-11T18:56:03.986Z,64.53
2023-01-11T18:59:08.218Z,56.23
2023-01-11T19:02:17.420Z,49.10
2023-01-11T19:05:22.883Z,52.57
2023-01-11T19:08:24.852Z,46.73
2023-01-11T19:11:29.141Z,29.50
2023-01-11T19:14:30.777Z,18.57
2023-01-11T19:17:33.333Z,10.87
2023-01-11T19:20:35.136Z,10.33
2023-01-11T19:23:37.120Z,8.90
2023-01-11T19:26:38.940Z,8.07
2023-01-11T19:29:41.711Z,10.70
2023-01-11T19:32:43.550Z,9.97
2023-01-11T19:35:49.453Z,9.67
2023-01-11T19:38:51.311Z,9.27
2023-01-11T19:42:01.492Z,12.40
2023-01-11T19:45:04.701Z,9.30
2023-01-11T19:48:06.976Z,9.90
2023-01-11T19:51:10.697Z,10.87
2023-01-11T19:54:17.281Z,10.73
2023-01-11T19:57:22.858Z,12.07
2023-01-11T20:00:24.795Z,13.27
2023-01-11T20:03:28.241Z,12.53
2023-01-11T20:06:31.531Z,14.57
2023-01-11T20:09:33.390Z,15.13
2023-01-11T20:12:35.299Z,18.63
2023-01-11T20:15:40.051Z,13.87
2023-01-11T20:18:43.073Z,12.90
2023-01-11T20:21:44.920Z,11.63
2023-01-11T20:24:47.813Z,12.13
2023-01-11T20:27:52.249Z,10.73
2023-01-11T20:30:54.579Z,12.33
2023-01-11T20:33:56.711Z,12.73
2023-01-11T20:36:58.304Z,15.77
2023-01-11T20:39:59.941Z,13.33
2023-01-11T20:43:01.634Z,12.87
2023-01-11T20:46:03.338Z,11.23
2023-01-11T20:49:05.407Z,13.93
2023-01-11T20:52:07.099Z,15.03
2023-01-11T20:55:09.380Z,14.70
2023-01-11T20:58:11.011Z,11.90
2023-01-11T21:01:13.104Z,10.70
2023-01-11T21:04:14.854Z,12.37
2023-01-11T21:07:16.479Z,12.57
2023-01-11T21:10:18.129Z,11.93
2023-01-11T21:13:19.801Z,13.77
2023-01-11T21:16:24.229Z,12.20
2023-01-11T21:19:26.754Z,13.97
2023-01-11T21:22:28.370Z,13.03
2023-01-11T21:25:33.014Z,12.83
2023-01-11T21:28:34.711Z,13.17
2023-01-11T21:31:36.819Z,12.63
2023-01-11T21:34:38.479Z,12.90
2023-01-11T21:37:40.187Z,12.77
2023-01-11T21:40:41.795Z,13.00
2023-01-11T21:43:43.786Z,13.70
2023-01-11T21:46:45.547Z,14.00
2023-01-11T21:49:47.242Z,12.93
2023-01-11T21:52:48.957Z,24.73
2023-01-11T21:55:50.645Z,22.67
2023-01-11T21:58:52.414Z,26.50
2023-01-11T22:01:54.058Z,14.43
2023-01-11T22:04:57.695Z,10.70
2023-01-11T22:07:59.419Z,14.00
2023-01-11T22:11:01.937Z,13.47
2023-01-11T22:14:03.760Z,16.27
2023-01-11T22:17:05.364Z,15.53
2023-01-11T22:20:07.121Z,10.73
2023-01-11T22:23:08.740Z,9.73
2023-01-11T22:26:11.353Z,22.03
2023-01-11T22:29:14.827Z,22.40
2023-01-11T22:32:19.698Z,15.10
2023-01-11T22:35:21.297Z,15.00
2023-01-11T22:38:22.942Z,11.20
2023-01-11T22:41:25.491Z,11.93
2023-01-11T22:44:27.601Z,11.23
2023-01-11T22:47:29.186Z,11.43
2023-01-11T22:50:30.749Z,14.57
2023-01-11T22:53:39.460Z,14.07
2023-01-11T22:56:41.362Z,20.87
2023-01-11T22:59:43.083Z,18.03
2023-01-11T23:02:44.641Z,19.97
2023-01-11T23:05:46.423Z,23.60
2023-01-11T23:08:48.278Z,20.77
2023-01-11T23:12:08.595Z,14.53
2023-01-11T23:15:10.566Z,12.53
2023-01-11T23:18:12.257Z,10.97
2023-01-11T23:21:14.124Z,9.60
2023-01-11T23:24:16.319Z,8.60
2023-01-11T23:27:18.018Z,7.80
2023-01-11T23:30:19.760Z,7.57
2023-01-11T23:33:21.385Z,10.80
2023-01-11T23:36:24.076Z,7.07
2023-01-11T23:39:25.754Z,6.97
2023-01-11T23:42:27.567Z,6.80
2023-01-11T23:45:29.259Z,6.47
2023-01-11T23:48:30.926Z,6.17
2023-01-11T23:51:32.803Z,6.53
2023-01-11T23:54:34.617Z,5.63
2023-01-11T23:57:36.234Z,5.87
